createdAt,value
2019-06-20T00:01:18.952Z,6.75
2019-06-20T00:03:47.335Z,7.03
2019-06-20T00:06:15.774Z,6.53
2019-06-20T00:08:44.163Z,6.55
2019-06-20T00:11:12.560Z,7.80
2019-06-20T00:13:40.980Z,6.87
2019-06-20T00:16:10.375Z,8.03
2019-06-20T00:18:38.970Z,8.10
2019-06-20T00:21:11.695Z,8.25
2019-06-20T00:23:40.169Z,8.70
2019-06-20T00:26:12.258Z,8.30
2019-06-20T00:28:40.695Z,8.95
2019-06-20T00:31:09.361Z,9.35
2019-06-20T00:33:37.964Z,9.27
2019-06-20T00:36:08.977Z,9.93
2019-06-20T00:38:37.380Z,9.48
2019-06-20T00:41:05.789Z,10.05
2019-06-20T00:43:34.186Z,9.88
2019-06-20T00:46:02.617Z,10.55
2019-06-20T00:48:31.020Z,10.88
2019-06-20T00:51:01.515Z,9.83
2019-06-20T00:53:29.984Z,10.63
2019-06-20T00:55:58.397Z,10.40
2019-06-20T00:58:26.810Z,9.78
2019-06-20T01:00:55.219Z,11.38
2019-06-20T01:03:23.625Z,11.20
2019-06-20T01:05:52.039Z,10.82
2019-06-20T01:08:20.443Z,11.75
2019-06-20T01:10:48.848Z,11.78
2019-06-20T01:13:32.656Z,12.73
2019-06-20T01:15:47.468Z,13.13
2019-06-20T01:18:15.885Z,13.10
2019-06-20T01:20:44.284Z,12.93
2019-06-20T01:23:12.717Z,13.95
2019-06-20T01:25:43.029Z,13.53
2019-06-20T01:28:11.507Z,13.25
2019-06-20T01:30:39.929Z,12.50
2019-06-20T01:33:08.337Z,13.85
2019-06-20T01:35:36.739Z,11.90
2019-06-20T01:38:05.608Z,13.18
2019-06-20T01:40:35.066Z,13.08
2019-06-20T01:43:03.490Z,12.78
2019-06-20T01:45:31.886Z,14.40
2019-06-20T01:48:00.310Z,15.23
2019-06-20T01:50:29.772Z,14.70
2019-06-20T01:52:58.182Z,14.60
2019-06-20T01:55:29.063Z,15.13
2019-06-20T01:57:57.490Z,16.20
2019-06-20T02:00:31.368Z,15.23
2019-06-20T02:02:59.804Z,16.30
2019-06-20T02:05:28.278Z,16.87
2019-06-20T02:07:56.707Z,16.85
2019-06-20T02:10:25.118Z,18.17
2019-06-20T02:12:53.543Z,17.73
2019-06-20T02:15:21.931Z,17.15
2019-06-20T02:17:50.352Z,17.05
2019-06-20T02:20:31.297Z,17.35
2019-06-20T02:22:59.787Z,17.15
2019-06-20T02:25:30.378Z,18.25
2019-06-20T02:27:58.780Z,17.37
2019-06-20T02:30:27.419Z,16.90
2019-06-20T02:32:55.920Z,17.27
2019-06-20T02:35:24.616Z,17.35
2019-06-20T02:37:53.017Z,18.12
2019-06-20T02:40:21.579Z,17.87
2019-06-20T02:42:50.186Z,17.80
2019-06-20T02:45:23.026Z,17.90
2019-06-20T02:47:51.424Z,18.15
2019-06-20T02:50:20.184Z,18.62
2019-06-20T02:52:48.611Z,17.48
2019-06-20T02:55:17.360Z,17.90
2019-06-20T02:57:45.770Z,17.80
2019-06-20T03:00:14.721Z,17.37
2019-06-20T03:02:43.119Z,16.75
2019-06-20T03:05:11.872Z,17.57
2019-06-20T03:07:40.303Z,17.47
2019-06-20T03:10:09.121Z,17.17
2019-06-20T03:12:37.578Z,18.25
2019-06-20T03:15:06.711Z,18.05
2019-06-20T03:17:38.916Z,17.07
2019-06-20T03:20:09.621Z,15.98
2019-06-20T03:22:38.105Z,16.82
2019-06-20T03:25:06.677Z,16.02
2019-06-20T03:27:35.072Z,15.65
2019-06-20T03:30:05.231Z,15.68
2019-06-20T03:32:40.802Z,14.95
2019-06-20T03:35:09.193Z,13.70
2019-06-20T03:37:37.726Z,15.25
2019-06-20T03:40:07.359Z,13.90
2019-06-20T03:42:35.794Z,13.83
2019-06-20T03:45:09.898Z,13.88
2019-06-20T03:47:38.297Z,12.87
2019-06-20T03:50:08.534Z,12.68
2019-06-20T03:52:36.960Z,12.88
2019-06-20T03:55:06.294Z,11.88
2019-06-20T03:57:37.122Z,12.63
2019-06-20T04:00:07.491Z,10.82
2019-06-20T04:02:35.897Z,11.50
2019-06-20T04:05:05.880Z,10.72
2019-06-20T04:07:34.279Z,11.38
2019-06-20T04:10:02.672Z,10.85
2019-06-20T04:12:31.076Z,11.28
2019-06-20T04:14:59.488Z,10.53
2019-06-20T04:17:27.895Z,11.75
2019-06-20T04:19:56.356Z,11.97
2019-06-20T04:22:24.743Z,10.70
2019-06-20T04:24:53.481Z,10.95
2019-06-20T04:27:21.897Z,11.78
2019-06-20T04:29:50.290Z,10.82
2019-06-20T04:32:18.731Z,11.95
2019-06-20T04:34:47.136Z,10.55
2019-06-20T04:37:15.532Z,11.22
2019-06-20T04:39:46.379Z,9.63
2019-06-20T04:42:18.734Z,10.53
2019-06-20T04:44:47.394Z,10.53
2019-06-20T04:47:16.703Z,11.30
2019-06-20T04:49:45.167Z,10.43
2019-06-20T04:52:13.579Z,11.97
2019-06-20T04:54:43.020Z,12.60
2019-06-20T04:57:11.442Z,11.97
2019-06-20T04:59:42.227Z,11.12
2019-06-20T05:02:14.767Z,11.87
2019-06-20T05:04:44.132Z,11.93
2019-06-20T05:07:19.845Z,13.57
2019-06-20T05:09:51.136Z,13.32
2019-06-20T05:12:19.570Z,12.63
2019-06-20T05:14:48.018Z,12.05
2019-06-20T05:17:16.384Z,12.53
2019-06-20T05:19:44.804Z,10.90
2019-06-20T05:22:17.052Z,11.08
2019-06-20T05:27:13.089Z,10.65
2019-06-20T05:29:42.485Z,10.40
2019-06-20T05:32:10.903Z,11.57
2019-06-20T05:34:39.318Z,11.57
2019-06-20T05:37:07.726Z,11.70
2019-06-20T05:39:36.131Z,10.90
2019-06-20T05:42:04.735Z,10.63
2019-06-20T05:44:33.216Z,11.18
2019-06-20T05:47:11.931Z,11.00
2019-06-20T05:49:31.790Z,11.00
2019-06-20T05:52:00.196Z,10.38
2019-06-20T05:54:28.607Z,9.88
2019-06-20T05:56:57.015Z,9.33
2019-06-20T05:59:25.768Z,10.18
2019-06-20T06:01:56.925Z,9.73
2019-06-20T06:04:29.082Z,9.03
2019-06-20T06:06:57.586Z,11.20
2019-06-20T06:09:26.002Z,11.53
2019-06-20T06:11:54.420Z,10.55
2019-06-20T06:14:22.837Z,11.05
2019-06-20T06:16:51.254Z,11.90
2019-06-20T06:19:19.659Z,12.20
2019-06-20T06:21:48.063Z,12.77
2019-06-20T06:24:26.029Z,12.58
2019-06-20T06:26:47.835Z,14.47
2019-06-20T06:29:16.237Z,14.65
2019-06-20T06:31:44.676Z,13.77
2019-06-20T06:34:14.013Z,13.88
2019-06-20T06:36:46.269Z,14.60
2019-06-20T06:39:14.745Z,14.85
2019-06-20T06:41:44.069Z,16.43
2019-06-20T06:44:12.506Z,18.95
2019-06-20T06:46:47.230Z,19.37
2019-06-20T06:49:11.075Z,19.85
2019-06-20T06:51:39.559Z,20.05
2019-06-20T06:54:11.781Z,19.57
2019-06-20T06:59:07.992Z,20.92
2019-06-20T07:01:36.418Z,19.32
2019-06-20T07:04:08.326Z,22.02
2019-06-20T07:06:40.565Z,21.05
2019-06-20T07:09:09.415Z,21.15
2019-06-20T07:11:38.824Z,21.65
2019-06-20T07:14:07.368Z,23.20
2019-06-20T07:16:35.861Z,25.37
2019-06-20T07:19:04.452Z,27.55
2019-06-20T07:21:32.957Z,27.20
2019-06-20T07:24:01.393Z,27.82
2019-06-20T07:26:29.790Z,28.12
2019-06-20T07:28:58.218Z,29.70
2019-06-20T07:31:27.680Z,31.93
2019-06-20T07:33:56.109Z,30.92
2019-06-20T07:36:24.689Z,31.87
2019-06-20T07:38:53.155Z,32.40
2019-06-20T07:41:21.551Z,35.35
2019-06-20T07:43:49.990Z,37.33
2019-06-20T07:46:18.530Z,37.53
2019-06-20T07:48:46.944Z,38.20
2019-06-20T07:51:15.376Z,36.53
2019-06-20T07:53:44.721Z,37.70
2019-06-20T07:56:13.112Z,35.63
2019-06-20T07:58:45.383Z,37.15
2019-06-20T08:03:45.083Z,38.90
2019-06-20T08:06:11.578Z,38.08
2019-06-20T08:08:39.993Z,42.33
2019-06-20T08:11:08.393Z,39.55
2019-06-20T08:13:36.818Z,42.55
2019-06-20T08:16:05.478Z,39.10
2019-06-20T08:18:37.389Z,39.35
2019-06-20T08:21:05.838Z,40.30
2019-06-20T08:23:34.237Z,40.80
2019-06-20T08:26:02.663Z,37.50
2019-06-20T08:28:31.087Z,40.70
2019-06-20T08:31:02.725Z,35.70
2019-06-20T08:33:31.133Z,34.27
2019-06-20T08:36:00.504Z,36.08
2019-06-20T08:38:28.963Z,36.55
2019-06-20T08:40:58.364Z,37.85
2019-06-20T08:43:27.076Z,37.42
2019-06-20T08:45:57.803Z,37.05
2019-06-20T08:48:25.675Z,36.13
2019-06-20T08:50:54.133Z,37.00
2019-06-20T08:53:22.557Z,39.55
2019-06-20T08:55:50.968Z,38.33
2019-06-20T08:58:19.376Z,38.45
2019-06-20T09:00:48.359Z,35.55
2019-06-20T09:03:16.765Z,30.45
2019-06-20T09:05:45.175Z,30.65
2019-06-20T09:08:16.053Z,30.23
2019-06-20T09:10:44.523Z,27.05
2019-06-20T09:13:13.505Z,27.17
2019-06-20T09:15:44.074Z,25.27
2019-06-20T09:18:14.171Z,26.30
2019-06-20T09:20:42.861Z,24.20
2019-06-20T09:23:11.354Z,23.77
2019-06-20T09:25:40.795Z,22.77
2019-06-20T09:28:09.286Z,24.33
2019-06-20T09:30:38.138Z,22.70
2019-06-20T09:33:07.120Z,22.02
2019-06-20T09:35:40.843Z,21.75
2019-06-20T09:38:08.565Z,22.82
2019-06-20T09:40:37.000Z,21.87
2019-06-20T09:43:06.073Z,21.30
2019-06-20T09:45:36.821Z,23.22
2019-06-20T09:48:05.529Z,20.07
2019-06-20T09:50:33.963Z,20.62
2019-06-20T09:53:02.345Z,20.85
2019-06-20T09:55:30.781Z,20.08
2019-06-20T09:57:59.217Z,18.27
2019-06-20T10:00:28.677Z,20.65
2019-06-20T10:02:57.823Z,22.50
2019-06-20T10:05:26.838Z,19.90
2019-06-20T10:07:56.737Z,20.72
2019-06-20T10:10:30.431Z,22.30
2019-06-20T10:13:00.183Z,21.02
2019-06-20T10:15:30.916Z,22.30
2019-06-20T10:18:06.035Z,21.77
2019-06-20T10:20:34.639Z,21.87
2019-06-20T10:23:05.263Z,22.05
2019-06-20T10:25:36.442Z,19.95
2019-06-20T10:28:05.320Z,21.13
2019-06-20T10:30:33.753Z,22.77
2019-06-20T10:33:02.159Z,22.40
2019-06-20T10:35:30.587Z,22.42
2019-06-20T10:38:02.491Z,23.85
2019-06-20T10:40:30.415Z,24.12
2019-06-20T10:42:58.846Z,23.83
2019-06-20T10:45:41.007Z,24.63
2019-06-20T10:48:09.452Z,23.73
2019-06-20T10:50:37.857Z,24.75
2019-06-20T10:53:06.421Z,23.92
2019-06-20T10:55:34.844Z,24.07
2019-06-20T10:58:04.295Z,22.62
2019-06-20T11:00:33.876Z,24.23
2019-06-20T11:03:02.327Z,21.97
2019-06-20T11:05:30.733Z,22.13
2019-06-20T11:07:59.138Z,20.72
2019-06-20T11:10:28.061Z,19.07
2019-06-20T11:13:00.315Z,18.90
2019-06-20T11:17:57.181Z,15.90
2019-06-20T11:20:26.949Z,14.63
2019-06-20T11:22:55.339Z,14.33
2019-06-20T11:25:23.833Z,14.07
2019-06-20T11:27:53.640Z,12.93
2019-06-20T11:30:26.119Z,12.33
2019-06-20T11:32:58.394Z,11.70
2019-06-20T11:35:30.513Z,10.40
2019-06-20T11:37:58.964Z,10.70
2019-06-20T11:40:30.252Z,10.28
2019-06-20T11:45:28.902Z,8.80
2019-06-20T11:47:57.304Z,7.65
2019-06-20T11:50:26.083Z,7.05
2019-06-20T11:52:54.524Z,6.87
2019-06-20T11:55:23.627Z,5.85
2019-06-20T11:57:52.022Z,4.95
2019-06-20T12:00:21.558Z,6.12
2019-06-20T12:02:50.336Z,5.85
2019-06-20T12:05:19.264Z,6.20
2019-06-20T12:07:48.495Z,6.78
2019-06-20T12:10:18.575Z,7.03
2019-06-20T12:12:47.081Z,6.42
2019-06-20T12:15:15.595Z,6.10
2019-06-20T12:17:49.146Z,6.10
2019-06-20T12:20:18.321Z,6.55
2019-06-20T12:22:46.739Z,6.73
2019-06-20T12:25:18.228Z,6.90
2019-06-20T12:27:47.780Z,6.80
2019-06-20T12:30:18.026Z,7.53
2019-06-20T12:32:46.849Z,7.33
2019-06-20T12:35:15.876Z,8.43
2019-06-20T12:37:45.200Z,8.98
2019-06-20T12:40:15.990Z,8.78
2019-06-20T12:42:44.921Z,8.75
2019-06-20T12:45:15.732Z,7.90
2019-06-20T12:47:44.264Z,9.60
2019-06-20T12:50:14.379Z,9.13
2019-06-20T12:52:43.233Z,8.70
2019-06-20T12:55:13.135Z,9.35
2019-06-20T12:57:42.290Z,8.60
2019-06-20T13:00:15.763Z,9.05
2019-06-20T13:02:43.787Z,9.05
2019-06-20T13:05:13.350Z,8.98
2019-06-20T13:07:46.490Z,9.38
2019-06-20T13:10:15.899Z,9.33
2019-06-20T13:12:46.963Z,8.73
2019-06-20T13:15:15.854Z,8.48
2019-06-20T13:17:45.008Z,9.15
2019-06-20T13:20:14.503Z,7.58
2019-06-20T13:22:44.637Z,8.67
2019-06-20T13:25:14.607Z,11.43
2019-06-20T13:27:43.444Z,12.37
2019-06-20T13:30:12.555Z,14.68
2019-06-20T13:32:45.436Z,14.53
2019-06-20T13:35:18.883Z,14.85
2019-06-20T13:37:47.852Z,14.68
2019-06-20T13:40:18.704Z,15.43
2019-06-20T13:42:55.677Z,16.62
2019-06-20T13:45:26.410Z,14.95
2019-06-20T13:47:54.961Z,15.93
2019-06-20T13:50:27.277Z,15.43
2019-06-20T13:52:55.848Z,14.50
2019-06-20T13:55:24.455Z,13.83
2019-06-20T13:57:52.993Z,14.23
2019-06-20T14:00:24.222Z,13.90
2019-06-20T14:02:53.009Z,14.60
2019-06-20T14:05:24.552Z,13.68
2019-06-20T14:07:55.982Z,15.53
2019-06-20T14:10:25.344Z,14.95
2019-06-20T14:12:58.191Z,13.90
2019-06-20T14:15:28.766Z,14.85
2019-06-20T14:18:01.304Z,14.90
2019-06-20T14:20:28.488Z,14.93
2019-06-20T14:22:56.909Z,14.65
2019-06-20T14:25:34.157Z,13.70
2019-06-20T14:28:01.554Z,13.90
2019-06-20T14:30:30.879Z,14.50
2019-06-20T14:32:59.286Z,13.20
2019-06-20T14:35:27.840Z,13.03
2019-06-20T14:37:57.307Z,12.50
2019-06-20T14:40:25.980Z,13.15
2019-06-20T14:42:59.658Z,13.32
2019-06-20T14:45:30.391Z,13.75
2019-06-20T14:47:58.282Z,13.08
2019-06-20T14:50:26.701Z,12.60
2019-06-20T14:52:57.534Z,13.32
2019-06-20T14:55:25.988Z,12.95
2019-06-20T14:57:54.949Z,12.85
2019-06-20T15:00:28.183Z,13.18
2019-06-20T15:02:58.813Z,13.25
2019-06-20T15:05:27.356Z,12.23
2019-06-20T15:07:56.130Z,12.98
2019-06-20T15:10:24.676Z,13.13
2019-06-20T15:12:56.012Z,13.30
2019-06-20T15:15:24.641Z,25.43
2019-06-20T15:17:57.936Z,13.58
2019-06-20T15:20:26.486Z,12.40
2019-06-20T15:22:57.463Z,12.13
2019-06-20T15:25:25.984Z,10.30
2019-06-20T15:27:57.066Z,11.25
2019-06-20T15:30:32.393Z,11.07
2019-06-20T15:33:10.114Z,10.72
2019-06-20T15:35:43.102Z,11.08
2019-06-20T15:38:12.563Z,10.93
2019-06-20T15:40:43.487Z,11.40
2019-06-20T15:43:12.059Z,11.68
2019-06-20T15:45:41.776Z,11.80
2019-06-20T15:48:11.414Z,10.43
2019-06-20T15:50:41.068Z,11.00
2019-06-20T15:53:14.135Z,10.15
2019-06-20T15:55:46.563Z,11.10
2019-06-20T15:58:15.011Z,12.50
2019-06-20T16:00:43.418Z,10.95
2019-06-20T16:03:14.461Z,11.53
2019-06-20T16:05:42.205Z,10.65
2019-06-20T16:08:13.018Z,11.60
2019-06-20T16:10:45.179Z,11.88
2019-06-20T16:13:21.590Z,11.73
2019-06-20T16:15:50.636Z,13.00
2019-06-20T16:18:19.112Z,12.98
2019-06-20T16:20:47.533Z,12.60
2019-06-20T16:23:15.954Z,13.22
2019-06-20T16:25:44.362Z,12.43
2019-06-20T16:28:15.186Z,12.35
2019-06-20T16:30:48.313Z,12.53
2019-06-20T16:33:24.965Z,11.78
2019-06-20T16:35:46.948Z,12.43
2019-06-20T16:38:15.352Z,12.15
2019-06-20T16:40:46.192Z,11.28
2019-06-20T16:43:14.755Z,11.40
2019-06-20T16:45:44.450Z,10.85
2019-06-20T16:48:13.020Z,10.05
2019-06-20T16:50:41.614Z,9.93
2019-06-20T16:53:12.316Z,9.28
2019-06-20T16:55:43.258Z,9.80
2019-06-20T16:58:11.745Z,10.50
2019-06-20T17:00:40.144Z,9.80
2019-06-20T17:03:08.631Z,8.90
2019-06-20T17:05:37.084Z,9.28
2019-06-20T17:08:05.491Z,9.10
2019-06-20T17:10:37.706Z,8.98
2019-06-20T17:13:07.180Z,7.97
2019-06-20T17:15:36.741Z,8.13
2019-06-20T17:18:07.794Z,8.05
2019-06-20T17:20:36.417Z,7.92
2019-06-20T17:23:05.298Z,7.53
2019-06-20T17:25:34.056Z,9.25
2019-06-20T17:28:07.064Z,6.95
2019-06-20T17:30:35.918Z,7.03
2019-06-20T17:33:04.625Z,6.15
2019-06-20T17:35:37.113Z,6.83
2019-06-20T17:38:05.579Z,6.45
2019-06-20T17:40:34.182Z,6.30
2019-06-20T17:43:02.619Z,6.80
2019-06-20T17:45:31.082Z,6.50
2019-06-20T17:47:59.529Z,6.75
2019-06-20T17:50:29.028Z,6.85
2019-06-20T17:52:57.386Z,6.90
2019-06-20T17:55:28.515Z,7.87
2019-06-20T17:58:02.687Z,8.50
2019-06-20T18:00:31.195Z,8.05
2019-06-20T18:03:04.833Z,8.23
2019-06-20T18:05:40.503Z,8.65
2019-06-20T18:08:15.428Z,10.13
2019-06-20T18:10:45.724Z,10.32
2019-06-20T18:13:13.706Z,9.63
2019-06-20T18:15:51.934Z,8.60
2019-06-20T18:18:23.289Z,8.95
2019-06-20T18:20:54.625Z,9.03
2019-06-20T18:23:32.243Z,9.43
2019-06-20T18:26:05.635Z,8.65
2019-06-20T18:28:34.023Z,9.00
2019-06-20T18:31:02.868Z,8.05
2019-06-20T18:33:34.630Z,8.43
2019-06-20T18:36:04.013Z,7.25
2019-06-20T18:38:35.890Z,9.28
2019-06-20T18:41:21.872Z,8.85
2019-06-20T18:43:50.289Z,10.03
2019-06-20T18:46:18.719Z,10.15
2019-06-20T18:48:47.118Z,8.93
2019-06-20T18:51:15.563Z,9.73
2019-06-20T18:53:44.012Z,8.47
2019-06-20T18:56:12.416Z,9.20
2019-06-20T18:58:40.851Z,9.85
2019-06-20T19:01:10.260Z,8.28
2019-06-20T19:03:38.813Z,9.18
2019-06-20T19:06:07.256Z,9.05
2019-06-20T19:08:35.993Z,10.28
2019-06-20T19:11:04.467Z,9.35
2019-06-20T19:13:32.895Z,9.45
2019-06-20T19:16:05.060Z,9.58
2019-06-20T19:18:33.489Z,8.88
2019-06-20T19:21:04.281Z,9.35
2019-06-20T19:23:36.236Z,11.00
2019-06-20T19:26:08.169Z,9.00
2019-06-20T19:31:05.767Z,8.78
2019-06-20T19:33:37.986Z,10.10
2019-06-20T19:38:38.798Z,10.63
2019-06-20T19:41:07.199Z,10.15
2019-06-20T19:43:35.600Z,10.45
2019-06-20T19:46:07.129Z,9.48
2019-06-20T19:48:36.882Z,10.00
2019-06-20T19:51:05.595Z,11.40
2019-06-20T19:53:34.159Z,11.97
2019-06-20T19:56:03.062Z,11.05
2019-06-20T19:58:31.626Z,10.93
2019-06-20T20:01:00.065Z,8.85
2019-06-20T20:03:28.547Z,8.70
2019-06-20T20:06:00.750Z,9.95
2019-06-20T20:08:29.626Z,9.63
2019-06-20T20:10:58.046Z,10.48
2019-06-20T20:13:26.491Z,11.05
2019-06-20T20:15:57.316Z,10.23
2019-06-20T20:18:25.027Z,12.82
2019-06-20T20:20:53.452Z,12.95
2019-06-20T20:23:21.863Z,12.50
2019-06-20T20:25:50.258Z,14.10
2019-06-20T20:28:18.689Z,17.07
2019-06-20T20:30:47.460Z,15.72
2019-06-20T20:33:22.302Z,17.40
2019-06-20T20:35:55.290Z,15.70
2019-06-20T20:38:23.704Z,15.78
2019-06-20T20:40:52.138Z,16.35
2019-06-20T20:43:24.183Z,19.15
2019-06-20T20:45:52.598Z,18.37
2019-06-20T20:48:21.029Z,21.65
2019-06-20T20:50:49.450Z,21.23
2019-06-20T20:53:17.865Z,22.17
2019-06-20T20:55:46.289Z,22.02
2019-06-20T20:58:14.689Z,24.85
2019-06-20T21:00:55.142Z,23.62
2019-06-20T21:03:23.545Z,25.20
2019-06-20T21:05:52.082Z,25.32
2019-06-20T21:08:22.936Z,22.67
2019-06-20T21:10:55.312Z,24.35
2019-06-20T21:13:23.839Z,25.15
2019-06-20T21:15:53.434Z,23.57
2019-06-20T21:18:21.817Z,21.97
2019-06-20T21:20:50.313Z,24.55
2019-06-20T21:23:18.727Z,24.35
2019-06-20T21:25:47.129Z,22.25
2019-06-20T21:28:15.563Z,22.93
2019-06-20T21:30:43.961Z,25.62
2019-06-20T21:33:13.675Z,23.75
2019-06-20T21:36:07.782Z,23.75
2019-06-20T21:38:22.151Z,23.92
2019-06-20T21:42:03.559Z,26.33
2019-06-20T21:43:29.454Z,26.45
2019-06-20T21:45:57.921Z,25.43
2019-06-20T21:48:32.042Z,26.50
2019-06-20T21:51:00.455Z,26.27
2019-06-20T21:53:28.863Z,27.98
2019-06-20T21:55:57.350Z,26.87
2019-06-20T21:58:26.835Z,24.95
2019-06-20T22:00:58.430Z,27.50
2019-06-20T22:03:31.966Z,27.13
2019-06-20T22:06:02.835Z,27.58
2019-06-20T22:08:31.336Z,28.00
2019-06-20T22:11:03.897Z,27.60
2019-06-20T22:13:32.295Z,26.70
2019-06-20T22:16:00.776Z,26.35
2019-06-20T22:18:29.185Z,24.77
2019-06-20T22:20:57.590Z,24.70
2019-06-20T22:23:26.004Z,26.50
2019-06-20T22:25:54.405Z,25.95
2019-06-20T22:28:22.908Z,25.95
2019-06-20T22:30:55.179Z,24.63
2019-06-20T22:33:23.591Z,26.10
2019-06-20T22:35:52.032Z,23.40
2019-06-20T22:38:20.447Z,23.25
2019-06-20T22:40:48.951Z,23.80
2019-06-20T22:43:17.578Z,24.12
2019-06-20T22:45:46.414Z,24.82
2019-06-20T22:48:14.990Z,23.38
2019-06-20T22:50:43.491Z,21.52
2019-06-20T22:53:12.084Z,21.93
2019-06-20T22:55:40.485Z,22.25
2019-06-20T22:58:09.174Z,21.73
2019-06-20T23:00:41.834Z,23.18
2019-06-20T23:03:10.241Z,23.90
2019-06-20T23:05:38.682Z,23.22
2019-06-20T23:08:07.077Z,23.98
2019-06-20T23:10:35.588Z,24.77
2019-06-20T23:13:04.109Z,24.55
2019-06-20T23:15:33.619Z,24.75
2019-06-20T23:18:02.077Z,25.95
2019-06-20T23:20:31.414Z,22.87
2019-06-20T23:22:59.830Z,22.07
2019-06-20T23:25:28.411Z,23.42
2019-06-20T23:27:56.843Z,21.27
2019-06-20T23:30:25.787Z,21.55
2019-06-20T23:32:54.192Z,21.10
2019-06-20T23:35:22.604Z,20.90
2019-06-20T23:37:51.026Z,18.87
2019-06-20T23:40:19.769Z,18.50
2019-06-20T23:42:48.204Z,19.87
2019-06-20T23:45:16.883Z,18.10
2019-06-20T23:47:45.297Z,18.60
2019-06-20T23:50:21.205Z,18.32
2019-06-20T23:52:55.048Z,19.10
2019-06-20T23:55:23.454Z,19.50
2019-06-20T23:57:51.844Z,19.55
